createdAt,value
2023-03-25T00:00:18.315Z,9.71
2023-03-25T00:01:25.869Z,9.57
2023-03-25T00:02:30.128Z,9.55
2023-03-25T00:03:35.677Z,9.61
2023-03-25T00:04:41.396Z,9.58
2023-03-25T00:05:43.963Z,9.55
2023-03-25T00:06:47.086Z,9.57
2023-03-25T00:07:52.372Z,9.64
2023-03-25T00:08:55.840Z,9.66
2023-03-25T00:09:58.369Z,9.64
2023-03-25T00:11:04.250Z,9.68
2023-03-25T00:12:06.886Z,9.59
2023-03-25T00:13:09.404Z,9.63
2023-03-25T00:14:12.411Z,9.65
2023-03-25T00:15:16.622Z,9.63
2023-03-25T00:16:19.308Z,9.65
2023-03-25T00:17:22.642Z,9.67
2023-03-25T00:18:33.792Z,9.79
2023-03-25T00:19:36.585Z,9.61
2023-03-25T00:20:42.407Z,9.58
2023-03-25T00:21:44.825Z,9.61
2023-03-25T00:22:47.330Z,9.63
2023-03-25T00:23:49.855Z,9.65
2023-03-25T00:24:52.623Z,9.60
2023-03-25T00:26:00.493Z,9.62
2023-03-25T00:27:03.534Z,9.66
2023-03-25T00:28:06.062Z,9.68
2023-03-25T00:29:09.549Z,9.75
2023-03-25T00:30:12.656Z,9.75
2023-03-25T00:31:15.714Z,9.78
2023-03-25T00:32:21.072Z,9.81
2023-03-25T00:33:23.460Z,9.78
2023-03-25T00:34:25.976Z,9.82
2023-03-25T00:35:29.171Z,9.85
2023-03-25T00:36:31.740Z,9.87
2023-03-25T00:37:34.633Z,9.90
2023-03-25T00:38:38.044Z,9.91
2023-03-25T00:39:41.220Z,9.92
2023-03-25T00:40:43.866Z,9.93
2023-03-25T00:41:46.392Z,9.94
2023-03-25T00:42:50.491Z,9.98
2023-03-25T00:43:55.525Z,10.04
2023-03-25T00:44:58.026Z,10.07
2023-03-25T00:46:00.791Z,10.03
2023-03-25T00:47:03.427Z,10.05
2023-03-25T00:48:07.111Z,10.08
2023-03-25T00:49:10.868Z,10.04
2023-03-25T00:50:14.585Z,10.13
2023-03-25T00:51:21.756Z,10.09
2023-03-25T00:52:24.434Z,10.09
2023-03-25T00:53:26.966Z,10.16
2023-03-25T00:54:29.350Z,10.13
2023-03-25T00:55:31.990Z,10.13
2023-03-25T00:56:34.514Z,10.12
2023-03-25T00:57:37.156Z,10.15
2023-03-25T00:58:40.765Z,10.14
2023-03-25T00:59:43.273Z,10.16
2023-03-25T01:00:45.807Z,10.11
2023-03-25T01:01:48.346Z,10.13
2023-03-25T01:02:54.136Z,10.12
2023-03-25T01:03:58.755Z,10.24
2023-03-25T01:05:02.236Z,10.29
2023-03-25T01:06:09.439Z,10.25
2023-03-25T01:07:12.796Z,10.26
2023-03-25T01:08:15.201Z,10.23
2023-03-25T01:09:19.938Z,10.24
2023-03-25T01:10:23.003Z,10.23
2023-03-25T01:11:28.283Z,10.29
2023-03-25T01:12:30.802Z,10.22
2023-03-25T01:13:33.320Z,10.25
2023-03-25T01:14:35.843Z,10.23
2023-03-25T01:15:39.938Z,10.24
2023-03-25T01:16:43.660Z,10.22
2023-03-25T01:17:46.356Z,10.15
2023-03-25T01:18:49.043Z,10.14
2023-03-25T01:19:52.046Z,10.13
2023-03-25T01:20:54.583Z,10.14
2023-03-25T01:21:57.206Z,10.10
2023-03-25T01:22:59.607Z,10.12
2023-03-25T01:24:02.729Z,10.08
2023-03-25T01:25:05.606Z,10.07
2023-03-25T01:26:08.129Z,10.09
2023-03-25T01:27:10.648Z,10.09
2023-03-25T01:28:13.175Z,10.08
2023-03-25T01:29:19.425Z,10.17
2023-03-25T01:30:21.931Z,10.08
2023-03-25T01:31:26.133Z,10.06
2023-03-25T01:32:29.391Z,10.15
2023-03-25T01:33:32.737Z,10.07
2023-03-25T01:34:38.784Z,10.14
2023-03-25T01:35:42.019Z,10.09
2023-03-25T01:36:46.813Z,10.06
2023-03-25T01:37:49.534Z,10.06
2023-03-25T01:38:52.552Z,10.08
2023-03-25T01:39:55.057Z,10.14
2023-03-25T01:40:57.582Z,10.10
2023-03-25T01:42:00.111Z,10.09
2023-03-25T01:43:02.509Z,10.13
2023-03-25T01:44:08.019Z,10.13
2023-03-25T01:45:29.381Z,10.20
2023-03-25T01:46:31.933Z,10.11
2023-03-25T01:47:34.465Z,10.07
2023-03-25T01:48:43.188Z,10.16
2023-03-25T01:49:46.916Z,10.17
2023-03-25T01:50:58.429Z,10.27
2023-03-25T01:52:09.483Z,10.26
2023-03-25T01:53:12.717Z,10.15
2023-03-25T01:54:18.147Z,10.06
2023-03-25T01:55:20.989Z,10.07
2023-03-25T01:56:27.628Z,10.23
2023-03-25T01:57:32.509Z,9.99
2023-03-25T01:58:36.117Z,10.08
2023-03-25T01:59:40.072Z,10.16
2023-03-25T02:00:44.526Z,10.14
2023-03-25T02:01:47.153Z,10.10
2023-03-25T02:02:50.971Z,10.06
2023-03-25T02:04:03.065Z,10.17
2023-03-25T02:05:12.241Z,10.18
2023-03-25T02:06:26.639Z,10.19
2023-03-25T02:07:32.930Z,10.10
2023-03-25T02:08:39.841Z,10.20
2023-03-25T02:09:43.336Z,10.13
2023-03-25T02:10:47.160Z,10.17
2023-03-25T02:11:50.651Z,10.08
2023-03-25T02:12:53.167Z,10.05
2023-03-25T02:13:59.883Z,10.18
2023-03-25T02:15:06.129Z,10.18
2023-03-25T02:16:14.908Z,10.01
2023-03-25T02:17:26.088Z,10.10
2023-03-25T02:18:31.685Z,10.19
2023-03-25T02:19:36.973Z,10.13
2023-03-25T02:20:57.850Z,10.24
2023-03-25T02:22:42.018Z,10.23
2023-03-25T02:24:24.256Z,10.16
2023-03-25T02:25:39.781Z,10.14
2023-03-25T02:27:13.950Z,10.03
2023-03-25T02:28:26.270Z,10.01
2023-03-25T02:29:49.592Z,10.06
2023-03-25T02:31:09.733Z,10.07
2023-03-25T02:32:40.846Z,10.10
2023-03-25T02:34:04.579Z,10.14
2023-03-25T02:35:26.218Z,10.03
2023-03-25T02:36:46.459Z,9.92
2023-03-25T02:38:07.705Z,9.89
2023-03-25T02:39:19.582Z,9.84
2023-03-25T02:40:34.579Z,9.84
2023-03-25T02:41:46.340Z,9.75
2023-03-25T02:42:55.463Z,9.72
2023-03-25T02:44:25.707Z,9.86
2023-03-25T02:45:50.604Z,9.79
2023-03-25T02:47:02.185Z,9.71
2023-03-25T02:48:38.318Z,9.79
2023-03-25T02:49:47.792Z,9.73
2023-03-25T02:50:53.606Z,9.72
2023-03-25T02:51:59.314Z,9.72
2023-03-25T02:53:08.820Z,9.72
2023-03-25T02:54:15.870Z,9.70
2023-03-25T02:55:21.750Z,9.72
2023-03-25T02:56:26.557Z,9.74
2023-03-25T02:57:30.633Z,9.69
2023-03-25T02:58:33.399Z,9.73
2023-03-25T02:59:38.636Z,9.79
2023-03-25T03:00:43.369Z,9.81
2023-03-25T03:01:50.562Z,9.78
2023-03-25T03:03:03.914Z,9.84
2023-03-25T03:04:08.194Z,9.71
2023-03-25T03:05:45.641Z,9.87
2023-03-25T03:06:48.283Z,9.64
2023-03-25T03:08:14.849Z,9.68
2023-03-25T03:09:32.928Z,9.66
2023-03-25T03:11:07.719Z,9.60
2023-03-25T03:12:28.725Z,9.43
2023-03-25T03:13:38.082Z,9.61
2023-03-25T03:14:49.365Z,9.55
2023-03-25T03:16:21.965Z,9.52
2023-03-25T03:17:34.736Z,9.48
2023-03-25T03:18:38.226Z,9.32
2023-03-25T03:19:50.941Z,9.44
2023-03-25T03:21:07.243Z,9.46
2023-03-25T03:22:43.488Z,9.54
2023-03-25T03:24:01.861Z,9.42
2023-03-25T03:25:29.111Z,9.46
2023-03-25T03:26:40.257Z,9.44
2023-03-25T03:28:04.750Z,9.35
2023-03-25T03:29:13.269Z,9.41
2023-03-25T03:30:27.293Z,9.22
2023-03-25T03:31:48.620Z,9.37
2023-03-25T03:33:33.193Z,9.38
2023-03-25T03:35:08.480Z,9.35
2023-03-25T03:36:17.459Z,9.33
2023-03-25T03:37:32.945Z,9.28
2023-03-25T03:38:41.344Z,9.34
2023-03-25T03:39:47.833Z,9.32
2023-03-25T03:40:58.144Z,9.33
2023-03-25T03:42:13.029Z,9.40
2023-03-25T03:43:54.192Z,9.43
2023-03-25T03:45:05.347Z,9.28
2023-03-25T03:46:24.593Z,9.29
2023-03-25T03:47:32.970Z,9.26
2023-03-25T03:48:53.346Z,9.29
2023-03-25T03:50:09.330Z,9.15
2023-03-25T03:51:19.644Z,9.07
2023-03-25T03:52:37.772Z,9.07
2023-03-25T03:53:45.799Z,9.01
2023-03-25T03:54:53.119Z,8.95
2023-03-25T03:56:01.766Z,8.95
2023-03-25T03:57:27.823Z,8.88
2023-03-25T03:58:35.122Z,8.75
2023-03-25T04:00:07.051Z,8.72
2023-03-25T04:01:28.165Z,8.65
2023-03-25T04:02:51.132Z,8.64
2023-03-25T04:03:58.448Z,8.56
2023-03-25T04:05:01.161Z,8.36
2023-03-25T04:06:18.803Z,8.49
2023-03-25T04:07:55.207Z,8.57
2023-03-25T04:09:04.524Z,8.56
2023-03-25T04:10:18.814Z,8.58
2023-03-25T04:11:25.767Z,8.53
2023-03-25T04:12:30.926Z,8.53
2023-03-25T04:13:37.762Z,8.53
2023-03-25T04:14:40.415Z,8.38
2023-03-25T04:15:43.767Z,8.45
2023-03-25T04:16:46.299Z,8.42
2023-03-25T04:17:48.791Z,8.44
2023-03-25T04:18:53.858Z,8.42
2023-03-25T04:19:56.985Z,8.44
2023-03-25T04:21:01.046Z,8.45
2023-03-25T04:22:04.776Z,8.52
2023-03-25T04:23:09.980Z,8.45
2023-03-25T04:24:16.690Z,8.49
2023-03-25T04:25:21.693Z,8.46
2023-03-25T04:26:24.333Z,8.47
2023-03-25T04:27:29.921Z,8.50
2023-03-25T04:28:32.499Z,8.50
2023-03-25T04:29:35.019Z,8.43
2023-03-25T04:30:37.534Z,8.41
2023-03-25T04:31:46.731Z,8.38
2023-03-25T04:32:49.240Z,8.37
2023-03-25T04:33:52.058Z,8.41
2023-03-25T04:34:58.778Z,8.46
2023-03-25T04:36:02.105Z,8.42
2023-03-25T04:37:04.778Z,8.43
2023-03-25T04:38:08.139Z,8.50
2023-03-25T04:39:17.911Z,8.43
2023-03-25T04:40:20.861Z,8.40
2023-03-25T04:41:23.825Z,8.43
2023-03-25T04:42:32.805Z,8.50
2023-03-25T04:43:35.510Z,8.44
2023-03-25T04:44:39.409Z,8.51
2023-03-25T04:45:54.597Z,8.46
2023-03-25T04:46:57.944Z,8.41
2023-03-25T04:48:00.521Z,8.41
2023-03-25T04:49:06.236Z,8.55
2023-03-25T04:50:22.461Z,8.58
2023-03-25T04:51:24.828Z,8.42
2023-03-25T04:52:27.350Z,8.47
2023-03-25T04:53:30.356Z,8.49
2023-03-25T04:54:32.869Z,8.43
2023-03-25T04:55:35.638Z,8.38
2023-03-25T04:56:39.627Z,8.48
2023-03-25T04:57:42.241Z,8.44
2023-03-25T04:58:45.722Z,8.44
2023-03-25T04:59:48.358Z,8.46
2023-03-25T05:00:52.101Z,8.52
2023-03-25T05:01:54.601Z,8.54
2023-03-25T05:02:57.157Z,8.51
2023-03-25T05:04:06.088Z,8.59
2023-03-25T05:05:08.877Z,8.56
2023-03-25T05:06:11.516Z,8.54
2023-03-25T05:07:14.038Z,8.56
2023-03-25T05:08:16.559Z,8.58
2023-03-25T05:09:24.485Z,8.77
2023-03-25T05:10:30.967Z,8.71
2023-03-25T05:11:36.119Z,8.78
2023-03-25T05:12:38.524Z,8.64
2023-03-25T05:13:41.038Z,8.68
2023-03-25T05:14:43.443Z,8.69
2023-03-25T05:15:45.962Z,8.71
2023-03-25T05:16:48.763Z,8.75
2023-03-25T05:17:51.277Z,8.73
2023-03-25T05:18:53.766Z,8.79
2023-03-25T05:19:57.120Z,8.83
2023-03-25T05:21:00.978Z,8.87
2023-03-25T05:22:04.796Z,8.94
2023-03-25T05:23:12.431Z,8.94
2023-03-25T05:24:14.894Z,8.86
2023-03-25T05:25:18.374Z,8.87
2023-03-25T05:26:20.975Z,8.94
2023-03-25T05:27:23.410Z,8.89
2023-03-25T05:28:25.927Z,8.98
2023-03-25T05:29:28.592Z,9.01
2023-03-25T05:30:32.629Z,9.04
2023-03-25T05:31:36.263Z,9.06
2023-03-25T05:32:41.433Z,9.00
2023-03-25T05:33:44.170Z,9.01
2023-03-25T05:34:46.819Z,9.07
2023-03-25T05:35:49.612Z,9.06
2023-03-25T05:36:54.397Z,9.04
2023-03-25T05:37:56.905Z,9.00
2023-03-25T05:38:59.893Z,9.05
2023-03-25T05:40:02.545Z,9.03
2023-03-25T05:41:18.161Z,9.00
2023-03-25T05:42:24.019Z,9.01
2023-03-25T05:43:26.537Z,9.02
2023-03-25T05:44:29.299Z,9.04
2023-03-25T05:45:31.847Z,9.01
2023-03-25T05:46:34.588Z,9.09
2023-03-25T05:47:37.027Z,9.01
2023-03-25T05:48:41.554Z,9.06
2023-03-25T05:49:44.066Z,9.05
2023-03-25T05:50:46.586Z,9.12
2023-03-25T05:51:54.150Z,9.10
2023-03-25T05:52:57.695Z,9.08
2023-03-25T05:54:00.390Z,9.17
2023-03-25T05:55:05.065Z,9.18
2023-03-25T05:56:07.950Z,9.27
2023-03-25T05:57:10.539Z,9.14
2023-03-25T05:58:12.995Z,9.22
2023-03-25T05:59:16.727Z,9.17
2023-03-25T06:00:21.550Z,9.35
2023-03-25T06:01:33.480Z,9.26
2023-03-25T06:02:39.060Z,9.30
2023-03-25T06:03:43.368Z,9.35
2023-03-25T06:04:50.576Z,9.42
2023-03-25T06:05:53.442Z,9.29
2023-03-25T06:06:55.954Z,9.25
2023-03-25T06:07:58.496Z,9.19
2023-03-25T06:09:01.358Z,9.24
2023-03-25T06:10:05.558Z,9.30
2023-03-25T06:11:09.876Z,9.22
2023-03-25T06:12:23.204Z,9.33
2023-03-25T06:13:25.600Z,9.14
2023-03-25T06:14:28.120Z,9.17
2023-03-25T06:15:39.106Z,9.18
2023-03-25T06:16:41.682Z,9.13
2023-03-25T06:17:46.700Z,9.23
2023-03-25T06:18:56.295Z,9.27
2023-03-25T06:20:00.657Z,9.26
2023-03-25T06:21:03.541Z,9.31
2023-03-25T06:22:11.206Z,9.47
2023-03-25T06:23:13.736Z,9.26
2023-03-25T06:24:16.252Z,9.34
2023-03-25T06:25:20.912Z,9.41
2023-03-25T06:26:24.533Z,9.48
2023-03-25T06:27:28.132Z,9.42
2023-03-25T06:28:30.654Z,9.55
2023-03-25T06:29:37.252Z,9.64
2023-03-25T06:30:39.652Z,9.62
2023-03-25T06:31:43.144Z,9.55
2023-03-25T06:32:50.697Z,9.52
2023-03-25T06:33:54.186Z,9.46
2023-03-25T06:34:56.697Z,9.53
2023-03-25T06:35:59.236Z,9.60
2023-03-25T06:37:02.336Z,9.61
2023-03-25T06:38:04.876Z,9.50
2023-03-25T06:39:21.298Z,9.58
2023-03-25T06:40:24.315Z,9.59
2023-03-25T06:41:27.064Z,9.63
2023-03-25T06:42:42.299Z,9.69
2023-03-25T06:44:10.747Z,9.76
2023-03-25T06:45:21.905Z,9.82
2023-03-25T06:46:54.423Z,9.75
2023-03-25T06:48:05.705Z,9.76
2023-03-25T06:49:08.342Z,9.82
2023-03-25T06:50:11.106Z,9.90
2023-03-25T06:51:13.624Z,9.89
2023-03-25T06:52:16.645Z,9.84
2023-03-25T06:53:19.178Z,9.73
2023-03-25T06:54:22.931Z,9.88
2023-03-25T06:55:25.512Z,10.01
2023-03-25T06:56:28.068Z,10.00
2023-03-25T06:57:30.434Z,9.83
2023-03-25T06:58:35.368Z,9.88
2023-03-25T06:59:37.997Z,9.75
2023-03-25T07:00:40.753Z,9.76
2023-03-25T07:01:43.271Z,9.79
2023-03-25T07:02:46.572Z,9.80
2023-03-25T07:03:49.035Z,9.76
2023-03-25T07:04:51.748Z,9.73
2023-03-25T07:05:54.315Z,9.74
2023-03-25T07:06:57.826Z,9.70
2023-03-25T07:08:00.568Z,9.70
2023-03-25T07:09:03.207Z,9.60
2023-03-25T07:10:07.519Z,9.58
2023-03-25T07:11:12.442Z,9.64
2023-03-25T07:12:14.961Z,9.48
2023-03-25T07:13:17.363Z,9.35
2023-03-25T07:14:19.883Z,9.14
2023-03-25T07:15:22.304Z,9.12
2023-03-25T07:16:26.004Z,9.08
2023-03-25T07:17:28.553Z,9.05
2023-03-25T07:18:31.063Z,8.94
2023-03-25T07:19:33.568Z,8.89
2023-03-25T07:20:36.208Z,8.85
2023-03-25T07:21:38.847Z,8.68
2023-03-25T07:22:41.376Z,8.63
2023-03-25T07:23:43.891Z,8.39
2023-03-25T07:24:46.428Z,8.30
2023-03-25T07:25:49.013Z,8.24
2023-03-25T07:26:51.584Z,8.20
2023-03-25T07:27:57.335Z,8.17
2023-03-25T07:28:59.973Z,8.20
2023-03-25T07:30:02.374Z,8.16
2023-03-25T07:31:10.492Z,8.34
2023-03-25T07:32:12.824Z,8.16
2023-03-25T07:33:15.588Z,8.13
2023-03-25T07:34:17.993Z,8.05
2023-03-25T07:35:20.879Z,8.03
2023-03-25T07:36:25.297Z,7.94
2023-03-25T07:37:27.819Z,7.82
2023-03-25T07:38:30.345Z,7.80
2023-03-25T07:39:32.886Z,7.77
2023-03-25T07:40:35.994Z,7.76
2023-03-25T07:41:38.502Z,7.69
2023-03-25T07:42:58.190Z,7.66
2023-03-25T07:44:21.964Z,7.64
2023-03-25T07:45:25.950Z,7.61
2023-03-25T07:46:28.834Z,7.56
2023-03-25T07:47:31.448Z,7.57
2023-03-25T07:48:33.951Z,7.59
2023-03-25T07:49:36.474Z,7.60
2023-03-25T07:50:38.990Z,7.60
2023-03-25T07:51:41.514Z,7.60
2023-03-25T07:52:44.152Z,7.59
2023-03-25T07:53:46.673Z,7.60
2023-03-25T07:54:49.084Z,7.61
2023-03-25T07:55:51.965Z,7.66
2023-03-25T07:56:55.632Z,7.76
2023-03-25T07:58:02.874Z,7.84
2023-03-25T07:59:05.761Z,7.88
2023-03-25T08:00:09.958Z,7.93
2023-03-25T08:01:15.834Z,7.94
2023-03-25T08:02:18.434Z,7.95
2023-03-25T08:03:21.381Z,7.96
2023-03-25T08:04:24.001Z,8.03
2023-03-25T08:05:28.091Z,8.14
2023-03-25T08:06:31.320Z,8.24
2023-03-25T08:07:34.203Z,8.30
2023-03-25T08:08:36.746Z,8.47
2023-03-25T08:09:39.127Z,8.46
2023-03-25T08:10:43.686Z,8.61
2023-03-25T08:11:47.522Z,8.88
2023-03-25T08:12:52.817Z,9.59
2023-03-25T08:13:55.327Z,9.98
2023-03-25T08:14:58.097Z,10.57
2023-03-25T08:16:00.964Z,11.14
2023-03-25T08:17:07.688Z,11.91
2023-03-25T08:18:10.120Z,12.23
2023-03-25T08:19:12.603Z,12.59
2023-03-25T08:20:15.753Z,12.59
2023-03-25T08:21:22.333Z,12.40
2023-03-25T08:22:24.842Z,11.89
2023-03-25T08:23:27.256Z,11.64
2023-03-25T08:24:30.242Z,11.21
2023-03-25T08:25:32.646Z,11.18
2023-03-25T08:26:35.648Z,11.24
2023-03-25T08:27:38.292Z,11.11
2023-03-25T08:28:40.688Z,11.22
2023-03-25T08:29:43.208Z,11.37
2023-03-25T08:30:46.222Z,11.43
2023-03-25T08:31:52.502Z,11.52
2023-03-25T08:32:55.379Z,11.60
2023-03-25T08:33:59.291Z,11.02
2023-03-25T08:35:04.341Z,10.75
2023-03-25T08:36:10.735Z,11.74
2023-03-25T08:37:14.413Z,11.89
2023-03-25T08:38:17.535Z,11.77
2023-03-25T08:39:22.098Z,11.51
2023-03-25T08:40:24.614Z,11.60
2023-03-25T08:41:27.138Z,12.04
2023-03-25T08:42:29.655Z,12.56
2023-03-25T08:43:32.419Z,12.82
2023-03-25T08:44:35.566Z,13.00
2023-03-25T08:45:38.060Z,13.02
2023-03-25T08:46:40.649Z,13.05
2023-03-25T08:47:45.709Z,12.77
2023-03-25T08:48:50.148Z,12.26
2023-03-25T08:49:52.827Z,12.16
2023-03-25T08:50:55.349Z,12.24
2023-03-25T08:52:00.402Z,12.32
2023-03-25T08:53:02.903Z,12.31
2023-03-25T08:54:05.426Z,12.47
2023-03-25T08:55:11.811Z,12.09
2023-03-25T08:56:15.394Z,11.95
2023-03-25T08:57:18.032Z,11.50
2023-03-25T08:58:21.154Z,11.36
2023-03-25T08:59:23.682Z,11.23
2023-03-25T09:00:27.527Z,11.31
2023-03-25T09:01:30.115Z,11.15
2023-03-25T09:02:32.697Z,11.21
2023-03-25T09:03:35.203Z,11.05
2023-03-25T09:04:39.057Z,10.93
2023-03-25T09:05:41.851Z,10.66
2023-03-25T09:06:48.229Z,10.60
2023-03-25T09:08:07.369Z,10.42
2023-03-25T09:09:12.036Z,10.42
2023-03-25T09:10:14.799Z,10.45
2023-03-25T09:11:24.195Z,10.31
2023-03-25T09:12:33.534Z,10.13
2023-03-25T09:13:36.166Z,10.12
2023-03-25T09:14:38.811Z,9.79
2023-03-25T09:15:41.761Z,9.64
2023-03-25T09:16:44.215Z,9.44
2023-03-25T09:17:47.024Z,9.27
2023-03-25T09:18:49.607Z,9.20
2023-03-25T09:19:53.995Z,9.17
2023-03-25T09:21:01.007Z,9.37
2023-03-25T09:22:04.009Z,9.08
2023-03-25T09:23:06.777Z,9.04
2023-03-25T09:24:09.891Z,9.09
2023-03-25T09:25:14.189Z,9.12
2023-03-25T09:26:16.729Z,9.04
2023-03-25T09:27:19.252Z,8.93
2023-03-25T09:28:21.773Z,8.96
2023-03-25T09:29:24.166Z,8.95
2023-03-25T09:30:26.686Z,8.89
2023-03-25T09:31:29.279Z,8.94
2023-03-25T09:32:31.990Z,8.94
2023-03-25T09:33:34.491Z,8.90
2023-03-25T09:34:38.813Z,8.78
2023-03-25T09:35:41.529Z,8.60
2023-03-25T09:36:45.798Z,8.24
2023-03-25T09:37:51.954Z,7.93
2023-03-25T09:38:55.143Z,7.72
2023-03-25T09:39:57.774Z,7.76
2023-03-25T09:41:16.855Z,7.83
2023-03-25T09:42:43.973Z,7.97
2023-03-25T09:44:09.547Z,7.98
2023-03-25T09:45:26.225Z,7.86
2023-03-25T09:46:28.908Z,7.98
2023-03-25T09:47:34.246Z,8.12
2023-03-25T09:48:43.027Z,8.26
2023-03-25T09:49:53.804Z,8.31
2023-03-25T09:50:59.715Z,8.60
2023-03-25T09:52:02.942Z,8.47
2023-03-25T09:53:16.024Z,8.67
2023-03-25T09:54:30.077Z,8.78
2023-03-25T09:55:41.467Z,8.81
2023-03-25T09:56:44.900Z,8.81
2023-03-25T09:57:51.563Z,8.92
2023-03-25T09:59:04.148Z,9.00
2023-03-25T10:00:07.274Z,8.86
2023-03-25T10:01:29.112Z,9.03
2023-03-25T10:02:45.286Z,9.04
2023-03-25T10:03:54.194Z,8.89
2023-03-25T10:05:06.593Z,9.10
2023-03-25T10:06:14.839Z,9.01
2023-03-25T10:07:28.396Z,9.08
2023-03-25T10:08:57.081Z,8.99
2023-03-25T10:10:27.319Z,8.98
2023-03-25T10:11:40.279Z,8.99
2023-03-25T10:12:52.561Z,9.05
2023-03-25T10:14:03.560Z,9.22
2023-03-25T10:15:23.962Z,9.39
2023-03-25T10:16:58.641Z,9.66
2023-03-25T10:18:29.128Z,9.59
2023-03-25T10:19:51.246Z,9.54
2023-03-25T10:21:13.164Z,9.77
2023-03-25T10:22:19.062Z,9.71
2023-03-25T10:23:40.169Z,10.13
2023-03-25T10:24:54.692Z,10.15
2023-03-25T10:26:03.211Z,10.37
2023-03-25T10:27:14.968Z,10.66
2023-03-25T10:28:22.890Z,11.42
2023-03-25T10:29:42.213Z,11.98
2023-03-25T10:30:49.203Z,12.15
2023-03-25T10:31:54.301Z,12.50
2023-03-25T10:32:58.833Z,12.64
2023-03-25T10:34:06.941Z,12.59
2023-03-25T10:35:19.090Z,12.33
2023-03-25T10:36:33.226Z,12.23
2023-03-25T10:37:42.178Z,11.64
2023-03-25T10:38:48.335Z,11.75
2023-03-25T10:39:51.640Z,11.61
2023-03-25T10:41:14.382Z,11.79
2023-03-25T10:42:26.164Z,12.07
2023-03-25T10:43:34.064Z,11.94
2023-03-25T10:44:36.710Z,11.53
2023-03-25T10:45:41.950Z,11.67
2023-03-25T10:46:51.585Z,11.72
2023-03-25T10:48:01.591Z,11.56
2023-03-25T10:49:04.071Z,11.31
2023-03-25T10:50:07.567Z,11.20
2023-03-25T10:51:13.067Z,11.02
2023-03-25T10:52:16.438Z,10.96
2023-03-25T10:53:27.965Z,10.86
2023-03-25T10:54:36.712Z,10.92
2023-03-25T10:55:42.110Z,10.77
2023-03-25T10:56:48.637Z,10.88
2023-03-25T10:57:52.191Z,10.74
2023-03-25T10:58:57.712Z,10.73
2023-03-25T11:00:05.165Z,11.59
2023-03-25T11:01:17.832Z,12.84
2023-03-25T11:02:25.436Z,13.73
2023-03-25T11:03:34.576Z,15.20
2023-03-25T11:04:41.273Z,15.80
2023-03-25T11:05:45.720Z,16.14
2023-03-25T11:06:58.206Z,16.37
2023-03-25T11:08:18.185Z,16.20
2023-03-25T11:09:28.208Z,15.44
2023-03-25T11:10:35.037Z,14.80
2023-03-25T11:11:37.803Z,15.13
2023-03-25T11:12:46.674Z,15.26
2023-03-25T11:13:56.893Z,14.86
2023-03-25T11:15:01.926Z,14.36
2023-03-25T11:16:04.873Z,14.69
2023-03-25T11:17:18.619Z,14.69
2023-03-25T11:18:35.767Z,14.75
2023-03-25T11:19:42.600Z,15.23
2023-03-25T11:20:54.599Z,14.82
2023-03-25T11:22:08.046Z,14.64
2023-03-25T11:23:37.806Z,13.99
2023-03-25T11:24:47.768Z,13.47
2023-03-25T11:25:51.048Z,13.04
2023-03-25T11:26:54.007Z,12.43
2023-03-25T11:28:03.373Z,12.21
2023-03-25T11:29:14.048Z,11.83
2023-03-25T11:30:23.555Z,11.52
2023-03-25T11:31:30.069Z,11.19
2023-03-25T11:32:38.434Z,10.96
2023-03-25T11:33:43.841Z,10.88
2023-03-25T11:34:50.715Z,11.03
2023-03-25T11:35:53.398Z,10.82
2023-03-25T11:37:00.850Z,10.79
2023-03-25T11:38:22.842Z,10.40
2023-03-25T11:39:42.615Z,10.36
2023-03-25T11:40:53.534Z,10.40
2023-03-25T11:41:57.444Z,10.23
2023-03-25T11:43:02.054Z,10.39
2023-03-25T11:44:06.149Z,10.48
2023-03-25T11:45:21.863Z,10.59
2023-03-25T11:46:25.129Z,10.79
2023-03-25T11:47:32.686Z,10.91
2023-03-25T11:48:40.111Z,11.13
2023-03-25T11:49:42.871Z,11.25
2023-03-25T11:50:54.263Z,11.40
2023-03-25T11:52:00.623Z,11.35
2023-03-25T11:53:04.596Z,11.55
2023-03-25T11:54:11.440Z,11.84
2023-03-25T11:55:19.826Z,12.10
2023-03-25T11:56:27.528Z,12.04
2023-03-25T11:57:39.746Z,12.72
2023-03-25T11:58:42.396Z,13.16
2023-03-25T11:59:47.313Z,13.31
2023-03-25T12:00:51.873Z,13.20
2023-03-25T12:02:18.795Z,13.03
2023-03-25T12:03:26.377Z,12.82
2023-03-25T12:04:29.794Z,12.52
2023-03-25T12:05:33.394Z,12.74
2023-03-25T12:06:36.315Z,12.54
2023-03-25T12:07:47.570Z,12.84
2023-03-25T12:08:57.642Z,12.57
2023-03-25T12:10:06.281Z,13.04
2023-03-25T12:11:15.643Z,12.91
2023-03-25T12:12:25.718Z,13.42
2023-03-25T12:14:01.723Z,13.90
2023-03-25T12:15:27.643Z,14.19
2023-03-25T12:16:37.646Z,14.27
2023-03-25T12:17:40.160Z,14.21
2023-03-25T12:19:01.365Z,15.35
2023-03-25T12:20:21.885Z,15.31
2023-03-25T12:21:43.013Z,14.89
2023-03-25T12:23:00.132Z,14.49
2023-03-25T12:24:33.286Z,14.51
2023-03-25T12:26:01.249Z,14.36
2023-03-25T12:27:12.649Z,14.47
2023-03-25T12:28:24.050Z,15.02
2023-03-25T12:29:51.290Z,15.31
2023-03-25T12:31:04.317Z,15.21
2023-03-25T12:32:26.847Z,15.09
2023-03-25T12:33:32.573Z,14.74
2023-03-25T12:34:52.978Z,14.63
2023-03-25T12:36:32.827Z,15.70
2023-03-25T12:38:12.181Z,15.27
2023-03-25T12:40:06.176Z,14.30
2023-03-25T12:41:31.641Z,14.02
2023-03-25T12:43:11.361Z,13.65
2023-03-25T12:44:38.224Z,13.42
2023-03-25T12:45:41.026Z,13.04
2023-03-25T12:47:04.386Z,12.57
2023-03-25T12:48:12.782Z,11.76
2023-03-25T12:49:27.184Z,11.13
2023-03-25T12:50:43.147Z,10.94
2023-03-25T12:51:48.431Z,10.70
2023-03-25T12:52:53.945Z,10.64
2023-03-25T12:54:06.068Z,10.46
2023-03-25T12:55:23.949Z,10.60
2023-03-25T12:56:48.248Z,11.20
2023-03-25T12:57:56.474Z,11.83
2023-03-25T12:59:47.112Z,12.25
2023-03-25T13:01:13.715Z,13.08
2023-03-25T13:02:31.366Z,13.45
2023-03-25T13:03:54.678Z,14.19
2023-03-25T13:04:59.717Z,14.58
2023-03-25T13:06:26.480Z,14.67
2023-03-25T13:07:34.734Z,14.52
2023-03-25T13:08:40.040Z,14.15
2023-03-25T13:10:03.821Z,14.40
2023-03-25T13:11:21.086Z,14.42
2023-03-25T13:12:42.844Z,14.11
2023-03-25T13:13:48.440Z,14.02
2023-03-25T13:15:26.107Z,14.34
2023-03-25T13:16:33.993Z,14.37
2023-03-25T13:17:44.047Z,14.51
2023-03-25T13:18:56.021Z,14.31
2023-03-25T13:20:02.379Z,14.20
2023-03-25T13:21:14.170Z,14.07
2023-03-25T13:22:24.837Z,13.52
2023-03-25T13:23:29.371Z,13.10
2023-03-25T13:24:40.652Z,12.96
2023-03-25T13:25:52.055Z,12.81
2023-03-25T13:26:55.674Z,12.23
2023-03-25T13:28:04.167Z,11.85
2023-03-25T13:29:13.888Z,11.35
2023-03-25T13:30:32.441Z,10.96
2023-03-25T13:31:41.199Z,10.59
2023-03-25T13:32:51.049Z,10.82
2023-03-25T13:34:03.811Z,10.83
2023-03-25T13:35:17.013Z,10.59
2023-03-25T13:36:35.878Z,10.42
2023-03-25T13:37:45.814Z,10.44
2023-03-25T13:38:52.421Z,10.18
2023-03-25T13:40:01.204Z,9.98
2023-03-25T13:41:25.058Z,10.04
2023-03-25T13:42:38.265Z,10.09
2023-03-25T13:44:05.378Z,10.12
2023-03-25T13:45:17.262Z,10.15
2023-03-25T13:46:30.107Z,10.30
2023-03-25T13:47:39.604Z,10.17
2023-03-25T13:49:11.864Z,10.24
2023-03-25T13:50:29.384Z,10.15
2023-03-25T13:51:32.041Z,9.74
2023-03-25T13:52:42.940Z,10.09
2023-03-25T13:54:04.663Z,10.41
2023-03-25T13:55:34.563Z,10.88
2023-03-25T13:56:58.474Z,11.16
2023-03-25T13:58:22.557Z,11.81
2023-03-25T14:00:02.267Z,12.23
2023-03-25T14:01:47.540Z,12.82
2023-03-25T14:03:01.980Z,13.17
2023-03-25T14:04:16.426Z,13.35
2023-03-25T14:05:55.310Z,13.22
2023-03-25T14:07:32.632Z,12.61
2023-03-25T14:09:08.997Z,12.33
2023-03-25T14:10:38.767Z,12.08
2023-03-25T14:12:19.436Z,11.95
2023-03-25T14:13:36.954Z,12.14
2023-03-25T14:14:47.171Z,12.20
2023-03-25T14:16:04.584Z,12.39
2023-03-25T14:17:08.055Z,12.43
2023-03-25T14:18:18.970Z,12.56
2023-03-25T14:19:25.559Z,12.64
2023-03-25T14:20:34.798Z,12.71
2023-03-25T14:21:38.321Z,12.41
2023-03-25T14:22:43.800Z,12.57
2023-03-25T14:23:47.535Z,12.58
2023-03-25T14:24:51.365Z,12.65
2023-03-25T14:25:58.485Z,12.76
2023-03-25T14:27:31.349Z,12.80
2023-03-25T14:28:38.930Z,12.38
2023-03-25T14:29:48.021Z,12.45
2023-03-25T14:31:09.050Z,12.95
2023-03-25T14:32:17.288Z,13.46
2023-03-25T14:33:19.582Z,13.25
2023-03-25T14:34:26.295Z,13.67
2023-03-25T14:35:31.699Z,13.91
2023-03-25T14:36:40.095Z,14.31
2023-03-25T14:37:42.625Z,14.02
2023-03-25T14:38:56.536Z,14.41
2023-03-25T14:40:06.741Z,14.40
2023-03-25T14:41:09.617Z,13.92
2023-03-25T14:42:28.963Z,14.00
2023-03-25T14:43:34.486Z,13.99
2023-03-25T14:44:41.400Z,13.80
2023-03-25T14:46:05.315Z,13.42
2023-03-25T14:47:20.487Z,13.55
2023-03-25T14:48:26.154Z,12.97
2023-03-25T14:50:06.622Z,12.87
2023-03-25T14:51:25.980Z,12.94
2023-03-25T14:52:43.754Z,12.55
2023-03-25T14:54:20.548Z,12.99
2023-03-25T14:55:41.194Z,12.98
2023-03-25T14:56:56.739Z,12.99
2023-03-25T14:58:07.349Z,12.78
2023-03-25T14:59:15.749Z,12.61
2023-03-25T15:00:29.879Z,12.53